Time;durP1;ratioP1;P1;durP2;ratioP2;P2;SDS_P1;SDS_P2;PMS_P1;PMS_P2;Temp;Humidity;BMP_temperature;BMP_pressure;BME280_temperature;BME280_humidity;BME280_pressure;Samples;Min_cycle;Max_cycle;Signal;HPM_P1;HPM_P2
2022/04/27 00:02:01;;;;;;;8.85;3.85;;;7.10;99.90;;;;;;5091378;28;20055;-84
2022/04/27 00:04:28;;;;;;;8.68;4.40;;;7.00;99.90;;;;;;5091631;28;20016;-83
2022/04/27 00:06:53;;;;;;;13.85;4.53;;;7.00;99.90;;;;;;5090636;28;20050;-83
2022/04/27 00:09:19;;;;;;;12.40;4.97;;;7.00;99.90;;;;;;5092221;28;20028;-84
2022/04/27 00:11:45;;;;;;;10.13;4.80;;;6.90;99.90;;;;;;5095139;28;20039;-84
2022/04/27 00:14:10;;;;;;;11.75;5.20;;;6.90;99.90;;;;;;5093361;28;20484;-83
2022/04/27 00:16:36;;;;;;;12.32;4.75;;;6.80;99.90;;;;;;5098553;28;20034;-85
2022/04/27 00:19:02;;;;;;;11.30;5.30;;;6.80;99.90;;;;;;5098418;28;20025;-83
2022/04/27 00:21:28;;;;;;;11.18;5.35;;;6.70;99.90;;;;;;5098481;28;20084;-83
2022/04/27 00:23:54;;;;;;;13.38;7.00;;;6.70;99.90;;;;;;5093995;28;20067;-85
2022/04/27 00:26:20;;;;;;;18.00;9.57;;;6.70;99.90;;;;;;5091852;28;20036;-84
2022/04/27 00:28:45;;;;;;;18.98;10.80;;;6.70;99.90;;;;;;5090936;28;20024;-84
2022/04/27 00:31:11;;;;;;;17.63;10.82;;;6.70;99.90;;;;;;5091386;28;20519;-84
2022/04/27 00:33:37;;;;;;;15.70;9.85;;;6.70;99.90;;;;;;5091975;28;20161;-84
2022/04/27 00:36:03;;;;;;;13.73;8.65;;;6.70;99.90;;;;;;5094548;28;20020;-85
2022/04/27 00:38:29;;;;;;;15.75;8.13;;;6.60;99.90;;;;;;5095091;28;20032;-85
2022/04/27 00:40:54;;;;;;;11.95;7.70;;;6.60;99.90;;;;;;5095823;28;20040;-84
2022/04/27 00:43:41;;;;;;;13.65;6.70;;;6.50;99.90;;;;;;5095440;28;20476;-85
2022/04/27 00:46:11;;;;;;;13.85;6.57;;;6.50;99.90;;;;;;5093847;28;20130;-84
2022/04/27 00:48:42;;;;;;;9.43;5.68;;;6.40;99.90;;;;;;5095379;28;20107;-85
2022/04/27 00:51:11;;;;;;;11.10;5.35;;;6.30;99.90;;;;;;5093600;28;20162;-84
2022/04/27 00:53:37;;;;;;;12.25;4.85;;;6.20;99.90;;;;;;5094654;28;20070;-84
2022/04/27 00:56:03;;;;;;;9.65;4.80;;;6.10;99.90;;;;;;5094636;28;20411;-84
2022/04/27 00:58:29;;;;;;;10.02;4.95;;;6.00;99.90;;;;;;5093058;28;20119;-85
2022/04/27 01:00:55;;;;;;;9.20;4.55;;;5.90;99.90;;;;;;5093300;28;20441;-85
2022/04/27 01:03:22;;;;;;;8.65;4.95;;;5.80;99.90;;;;;;5093136;28;20082;-85
2022/04/27 01:05:48;;;;;;;12.00;4.90;;;5.70;99.90;;;;;;5093140;28;20024;-84
2022/04/27 01:08:23;;;;;;;9.32;3.72;;;5.70;99.90;;;;;;5093277;28;20016;-85
2022/04/27 01:10:49;;;;;;;7.75;4.60;;;5.60;99.90;;;;;;5093374;28;20119;-85
2022/04/27 01:13:16;;;;;;;9.10;4.20;;;5.50;99.90;;;;;;5093206;28;20115;-85
2022/04/27 01:15:42;;;;;;;7.60;4.10;;;5.50;99.90;;;;;;5095117;28;20024;-85
2022/04/27 01:18:09;;;;;;;11.65;4.35;;;5.50;99.90;;;;;;5094306;28;20031;-84
2022/04/27 01:20:44;;;;;;;11.30;4.28;;;5.50;99.90;;;;;;5093948;28;20502;-84
2022/04/27 01:23:15;;;;;;;13.15;4.20;;;5.50;99.90;;;;;;5093005;28;20035;-84
2022/04/27 01:25:50;;;;;;;10.98;5.22;;;5.50;99.90;;;;;;5092566;28;20058;-85
2022/04/27 01:28:17;;;;;;;9.45;3.70;;;5.50;99.90;;;;;;5094258;28;20028;-84
2022/04/27 01:30:44;;;;;;;6.82;4.57;;;5.50;99.90;;;;;;5092741;28;20480;-84
2022/04/27 01:33:10;;;;;;;8.52;4.13;;;5.40;99.90;;;;;;5093972;28;20040;-84
2022/04/27 01:35:37;;;;;;;13.45;4.55;;;5.40;99.90;;;;;;5093801;28;20024;-84
2022/04/27 01:38:03;;;;;;;11.63;5.50;;;5.30;99.90;;;;;;5092488;28;20024;-84
2022/04/27 01:40:29;;;;;;;11.63;4.93;;;5.30;99.90;;;;;;5092153;28;20499;-85
2022/04/27 01:42:55;;;;;;;6.03;4.13;;;5.20;99.90;;;;;;5092508;28;20032;-84
2022/04/27 01:45:21;;;;;;;10.90;4.47;;;5.10;99.90;;;;;;5092454;28;20031;-85
2022/04/27 01:47:47;;;;;;;10.45;4.90;;;5.00;99.90;;;;;;5092331;28;20023;-85
2022/04/27 01:50:12;;;;;;;7.75;4.72;;;5.10;99.90;;;;;;5093384;28;20059;-85
2022/04/27 01:55:25;;;;;;;11.73;4.93;;;5.00;99.90;;;;;;5093183;28;20463;-85
2022/04/27 01:57:51;;;;;;;10.80;5.88;;;5.00;99.90;;;;;;5092101;28;20381;-85
2022/04/27 02:00:17;;;;;;;11.20;4.80;;;4.90;99.90;;;;;;5091957;28;20161;-84
2022/04/27 02:02:42;;;;;;;7.50;4.63;;;4.90;99.90;;;;;;5092613;28;20133;-85
2022/04/27 02:05:08;;;;;;;8.77;4.28;;;4.80;99.90;;;;;;5092658;28;20119;-84
2022/04/27 02:07:34;;;;;;;7.25;4.18;;;4.80;99.90;;;;;;5094040;28;20487;-84
2022/04/27 02:09:59;;;;;;;11.88;4.72;;;4.70;99.90;;;;;;5092476;28;20101;-85
2022/04/27 02:12:27;;;;;;;7.57;3.65;;;4.70;99.90;;;;;;5092616;28;20522;-84
2022/04/27 02:14:53;;;;;;;9.10;3.97;;;4.70;99.90;;;;;;5092484;28;20026;-84
2022/04/27 02:17:19;;;;;;;10.60;4.50;;;4.70;99.90;;;;;;5093860;28;20028;-85
2022/04/27 02:19:44;;;;;;;8.27;3.90;;;4.70;99.90;;;;;;5092521;28;20071;-84
2022/04/27 02:22:10;;;;;;;11.50;3.70;;;4.70;99.90;;;;;;5093800;28;20081;-85
2022/04/27 02:24:35;;;;;;;8.88;3.53;;;4.70;99.90;;;;;;5093506;28;20035;-85
2022/04/27 02:27:01;;;;;;;8.65;4.03;;;4.60;99.90;;;;;;5092396;28;20020;-84
2022/04/27 02:29:28;;;;;;;8.15;4.00;;;4.60;99.90;;;;;;5094186;28;20384;-83
2022/04/27 02:31:53;;;;;;;7.22;3.70;;;4.60;99.90;;;;;;5093344;28;20024;-84
2022/04/27 02:34:19;;;;;;;8.57;4.07;;;4.60;99.90;;;;;;5095001;28;20381;-84
2022/04/27 02:36:45;;;;;;;6.72;4.00;;;4.60;99.90;;;;;;5092780;28;20357;-84
2022/04/27 02:39:10;;;;;;;9.50;4.05;;;4.60;99.90;;;;;;5093341;28;20052;-84
2022/04/27 02:41:36;;;;;;;7.63;4.10;;;4.50;99.90;;;;;;5092466;28;20043;-84
2022/04/27 02:44:01;;;;;;;8.63;3.78;;;4.40;99.90;;;;;;5092565;28;20017;-85
2022/04/27 02:46:27;;;;;;;11.43;4.10;;;4.40;99.90;;;;;;5094295;28;20024;-84
2022/04/27 02:51:48;;;;;;;8.02;3.67;;;4.30;99.90;;;;;;5093545;28;20051;-84
2022/04/27 02:54:15;;;;;;;9.10;3.85;;;4.30;99.90;;;;;;5091735;28;20028;-84
2022/04/27 02:56:42;;;;;;;9.60;4.00;;;4.20;99.90;;;;;;5093234;28;20017;-84
2022/04/27 02:59:08;;;;;;;13.95;3.80;;;4.20;99.90;;;;;;5091527;28;20063;-84
2022/04/27 03:01:34;;;;;;;7.65;3.72;;;4.20;99.90;;;;;;5093591;28;20374;-84
2022/04/27 03:04:00;;;;;;;9.30;3.78;;;4.20;99.90;;;;;;5096619;28;20103;-83
2022/04/27 03:06:26;;;;;;;9.60;4.05;;;4.10;99.90;;;;;;5101911;28;20031;-83
2022/04/27 03:08:52;;;;;;;13.57;3.10;;;4.10;99.90;;;;;;5099687;28;20020;-83
2022/04/27 03:11:17;;;;;;;7.35;3.72;;;4.10;99.90;;;;;;5099037;28;20020;-84
2022/04/27 03:13:43;;;;;;;6.50;3.28;;;4.10;99.90;;;;;;5095274;28;20491;-84
2022/04/27 03:16:08;;;;;;;7.18;3.20;;;4.00;99.90;;;;;;5092034;28;20036;-84
2022/04/27 03:18:34;;;;;;;8.30;3.10;;;4.00;99.90;;;;;;5093060;28;20094;-83
2022/04/27 03:21:00;;;;;;;6.50;3.38;;;4.00;99.90;;;;;;5091544;28;20036;-84
2022/04/27 03:23:25;;;;;;;4.20;2.88;;;3.90;99.90;;;;;;5092631;28;20430;-84
2022/04/27 03:25:51;;;;;;;10.52;3.10;;;3.90;99.90;;;;;;5092518;28;20028;-83
2022/04/27 03:28:18;;;;;;;10.13;3.10;;;3.90;99.90;;;;;;5091414;28;20089;-84
2022/04/27 03:30:44;;;;;;;8.32;3.03;;;3.80;99.90;;;;;;5092515;28;20453;-84
2022/04/27 03:33:09;;;;;;;7.45;3.22;;;3.90;99.90;;;;;;5091549;28;20057;-84
2022/04/27 03:35:36;;;;;;;6.50;3.58;;;3.80;99.90;;;;;;5100979;28;20039;-84
2022/04/27 03:38:03;;;;;;;5.78;2.67;;;3.80;99.90;;;;;;5097827;28;20035;-84
2022/04/27 03:40:29;;;;;;;7.13;3.15;;;3.80;99.90;;;;;;5092134;28;20085;-84
2022/04/27 03:42:55;;;;;;;9.30;3.55;;;3.70;99.90;;;;;;5093038;28;20016;-85
2022/04/27 03:45:20;;;;;;;7.13;3.00;;;3.70;99.90;;;;;;5091485;28;20131;-84
2022/04/27 03:47:49;;;;;;;9.18;3.17;;;3.70;99.90;;;;;;5091395;28;20161;-83
2022/04/27 03:50:16;;;;;;;10.43;3.78;;;3.70;99.90;;;;;;5092046;28;20048;-84
2022/04/27 03:52:43;;;;;;;6.93;3.65;;;3.60;99.90;;;;;;5090668;28;20452;-83
2022/04/27 03:55:09;;;;;;;11.38;3.70;;;3.60;99.90;;;;;;5090863;28;20032;-84
2022/04/27 03:57:34;;;;;;;9.77;3.38;;;3.60;99.90;;;;;;5093845;28;20036;-84
2022/04/27 04:00:00;;;;;;;8.15;3.40;;;3.50;99.90;;;;;;5090889;28;20510;-84
2022/04/27 04:02:28;;;;;;;8.95;3.47;;;3.50;99.90;;;;;;5090843;28;20039;-83
2022/04/27 04:04:56;;;;;;;9.88;3.60;;;3.50;99.90;;;;;;5090825;28;20076;-83
2022/04/27 04:07:22;;;;;;;8.50;3.45;;;3.50;99.90;;;;;;5092151;28;20032;-83
2022/04/27 04:09:48;;;;;;;9.80;3.72;;;3.40;99.90;;;;;;5092051;28;20013;-84
2022/04/27 04:12:14;;;;;;;6.32;2.97;;;3.40;99.90;;;;;;5093216;28;20035;-84
2022/04/27 04:14:40;;;;;;;9.40;3.05;;;3.40;99.90;;;;;;5094777;28;20024;-83
2022/04/27 04:17:06;;;;;;;5.93;2.88;;;3.30;99.90;;;;;;5096093;28;20051;-84
2022/04/27 04:19:35;;;;;;;8.30;2.92;;;3.30;99.90;;;;;;5094299;28;20028;-83
2022/04/27 04:22:01;;;;;;;7.03;3.95;;;3.30;99.90;;;;;;5095976;28;20107;-84
2022/04/27 04:24:27;;;;;;;7.20;3.40;;;3.30;99.90;;;;;;5096188;28;20113;-83
2022/04/27 04:29:37;;;;;;;6.38;3.30;;;3.30;99.90;;;;;;5097293;28;20412;-83
2022/04/27 04:32:03;;;;;;;9.02;3.75;;;3.20;99.90;;;;;;5095069;28;20025;-83
2022/04/27 04:34:29;;;;;;;6.78;3.05;;;3.20;99.90;;;;;;5095446;28;20024;-83
2022/04/27 04:36:55;;;;;;;6.85;3.30;;;3.20;99.90;;;;;;5094487;28;20020;-83
2022/04/27 04:39:20;;;;;;;6.55;3.20;;;3.30;99.90;;;;;;5094376;28;20031;-85
2022/04/27 04:41:46;;;;;;;8.80;3.45;;;3.20;99.90;;;;;;5094405;28;20031;-84
2022/04/27 04:44:12;;;;;;;12.32;3.25;;;3.20;99.90;;;;;;5094285;28;20024;-83
2022/04/27 04:46:37;;;;;;;7.75;3.60;;;3.10;99.90;;;;;;5094182;28;20070;-83
2022/04/27 04:49:03;;;;;;;9.23;3.38;;;3.10;99.90;;;;;;5095134;28;20392;-83
2022/04/27 04:51:32;;;;;;;12.82;4.53;;;3.00;99.90;;;;;;5095529;28;20056;-84
2022/04/27 04:53:57;;;;;;;6.85;3.25;;;3.00;99.90;;;;;;5095228;28;20059;-83
2022/04/27 04:56:23;;;;;;;13.68;3.90;;;3.10;99.90;;;;;;5094127;28;20059;-85
2022/04/27 04:58:48;;;;;;;7.40;3.38;;;3.00;99.90;;;;;;5095384;28;20477;-84
2022/04/27 05:01:14;;;;;;;9.77;3.30;;;3.10;99.90;;;;;;5094157;28;20096;-84
2022/04/27 05:03:40;;;;;;;8.73;3.80;;;3.00;99.90;;;;;;5093786;28;20024;-83
2022/04/27 05:06:06;;;;;;;6.35;3.35;;;3.00;99.90;;;;;;5095327;28;20028;-84
2022/04/27 05:08:32;;;;;;;6.07;3.05;;;3.00;99.90;;;;;;5093924;28;20107;-84
2022/04/27 05:10:58;;;;;;;7.10;3.42;;;3.00;99.90;;;;;;5094250;28;20426;-83
2022/04/27 05:13:23;;;;;;;9.90;3.42;;;3.00;99.90;;;;;;5095341;28;20028;-84
2022/04/27 05:15:49;;;;;;;7.00;3.90;;;3.10;99.90;;;;;;5094009;28;20508;-84
2022/04/27 05:18:17;;;;;;;12.13;3.55;;;3.00;99.90;;;;;;5095242;28;20556;-83
2022/04/27 05:20:44;;;;;;;7.53;3.88;;;3.00;99.90;;;;;;5094192;28;20453;-83
2022/04/27 05:23:11;;;;;;;12.15;3.60;;;3.00;99.90;;;;;;5093218;28;20441;-83
2022/04/27 05:25:37;;;;;;;9.55;4.32;;;3.00;99.90;;;;;;5095110;28;20020;-83
2022/04/27 05:28:03;;;;;;;8.13;3.83;;;3.00;99.90;;;;;;5095077;28;20042;-84
2022/04/27 05:33:17;;;;;;;11.43;3.60;;;3.10;99.90;;;;;;5094965;28;20415;-83
2022/04/27 05:35:44;;;;;;;9.52;3.78;;;3.10;99.90;;;;;;5094820;28;20024;-83
2022/04/27 05:38:10;;;;;;;9.98;3.63;;;3.10;99.90;;;;;;5094877;28;20024;-85
2022/04/27 05:40:38;;;;;;;9.48;4.13;;;3.10;99.90;;;;;;5094722;28;20077;-84
2022/04/27 05:43:05;;;;;;;6.82;4.10;;;3.10;99.90;;;;;;5094721;28;20021;-84
2022/04/27 05:45:34;;;;;;;10.98;3.60;;;3.10;99.90;;;;;;5094613;28;20024;-84
2022/04/27 05:48:00;;;;;;;9.35;3.70;;;3.10;99.90;;;;;;5093021;28;20055;-84
2022/04/27 05:50:26;;;;;;;14.18;4.50;;;3.10;99.90;;;;;;5091698;28;20047;-84
2022/04/27 05:52:56;;;;;;;7.63;3.90;;;3.10;99.90;;;;;;5093096;28;20091;-84
2022/04/27 05:55:22;;;;;;;8.65;3.67;;;3.00;99.90;;;;;;5093133;28;20059;-84
2022/04/27 05:57:48;;;;;;;11.93;3.83;;;3.10;99.90;;;;;;5095064;28;20020;-84
2022/04/27 06:00:14;;;;;;;8.95;3.60;;;3.10;99.90;;;;;;5099069;28;20031;-84
2022/04/27 06:02:40;;;;;;;8.93;3.92;;;3.10;99.90;;;;;;5101463;28;20124;-83
2022/04/27 06:05:08;;;;;;;4.82;3.13;;;3.20;99.90;;;;;;5097499;28;20028;-84
2022/04/27 06:07:35;;;;;;;10.00;3.90;;;3.20;99.90;;;;;;5095840;28;20039;-84
2022/04/27 06:10:06;;;;;;;8.65;3.50;;;3.20;99.90;;;;;;5094465;28;20032;-83
2022/04/27 06:12:36;;;;;;;11.15;4.50;;;3.30;99.90;;;;;;5094464;28;20031;-83
2022/04/27 06:15:10;;;;;;;14.13;4.25;;;3.30;99.90;;;;;;5094100;28;20450;-84
2022/04/27 06:17:36;;;;;;;11.98;3.75;;;3.30;99.90;;;;;;5093781;28;20135;-83
2022/04/27 06:20:02;;;;;;;9.65;3.97;;;3.30;99.90;;;;;;5093833;28;20095;-83
2022/04/27 06:22:28;;;;;;;11.13;3.97;;;3.40;99.90;;;;;;5092472;28;20393;-83
2022/04/27 06:24:54;;;;;;;10.98;4.15;;;3.50;99.90;;;;;;5091872;28;20051;-83
2022/04/27 06:27:20;;;;;;;6.32;3.83;;;3.50;99.90;;;;;;5108855;28;20058;-83
2022/04/27 06:29:46;;;;;;;13.52;4.60;;;3.50;99.90;;;;;;5111414;28;20488;-85
2022/04/27 06:32:12;;;;;;;5.13;2.92;;;3.50;99.90;;;;;;5110392;28;20015;-83
2022/04/27 06:34:37;;;;;;;9.30;3.50;;;3.50;99.90;;;;;;5109935;28;20032;-84
2022/04/27 06:37:03;;;;;;;8.95;3.78;;;3.60;99.90;;;;;;5110900;28;20094;-83
2022/04/27 06:39:29;;;;;;;8.13;3.45;;;3.80;99.90;;;;;;5111067;28;20130;-84
2022/04/27 06:41:54;;;;;;;6.05;3.70;;;4.00;99.90;;;;;;5107871;28;20049;-84
2022/04/27 06:44:20;;;;;;;5.40;3.50;;;4.10;99.90;;;;;;5091520;28;20114;-83
2022/04/27 06:46:46;;;;;;;6.25;3.58;;;4.30;99.90;;;;;;5090922;28;20039;-84
2022/04/27 06:49:11;;;;;;;8.63;3.70;;;4.50;99.90;;;;;;5092121;28;20024;-84
2022/04/27 06:51:37;;;;;;;8.63;3.40;;;4.60;99.90;;;;;;5075287;28;20032;-84
2022/04/27 06:54:04;;;;;;;6.78;3.30;;;4.80;99.90;;;;;;5093398;28;20035;-84
2022/04/27 06:56:30;;;;;;;6.28;3.50;;;4.90;99.90;;;;;;5093593;28;20020;-84
2022/04/27 06:58:55;;;;;;;11.57;4.30;;;5.00;99.90;;;;;;5091227;28;20031;-83
2022/04/27 07:01:21;;;;;;;7.80;3.60;;;5.00;99.90;;;;;;5093020;28;20050;-83
2022/04/27 07:03:47;;;;;;;9.80;3.75;;;5.00;99.90;;;;;;5091828;28;20085;-84
2022/04/27 07:06:13;;;;;;;8.18;3.80;;;5.00;99.90;;;;;;5092892;28;20024;-83
2022/04/27 07:08:39;;;;;;;9.82;4.40;;;5.00;99.90;;;;;;5091011;28;20032;-85
2022/04/27 07:11:04;;;;;;;9.57;3.80;;;5.10;99.90;;;;;;5091433;28;20388;-84
2022/04/27 07:13:30;;;;;;;9.82;4.32;;;5.10;99.90;;;;;;5092210;28;20024;-85
2022/04/27 07:16:03;;;;;;;7.80;4.43;;;5.20;99.90;;;;;;5092523;28;20035;-83
2022/04/27 07:18:29;;;;;;;6.63;3.70;;;5.20;99.90;;;;;;5091211;28;20035;-84
2022/04/27 07:20:55;;;;;;;12.13;4.80;;;5.30;99.90;;;;;;5091373;28;20535;-85
2022/04/27 07:23:21;;;;;;;12.30;4.80;;;5.40;99.90;;;;;;5091021;28;20120;-83
2022/04/27 07:25:47;;;;;;;19.20;4.50;;;5.40;99.90;;;;;;5092628;28;20024;-83
2022/04/27 07:28:12;;;;;;;13.82;5.10;;;5.50;99.90;;;;;;5090951;28;20025;-83
2022/04/27 07:30:38;;;;;;;11.13;4.60;;;5.60;99.90;;;;;;5090786;28;20032;-84
2022/04/27 07:33:04;;;;;;;13.90;5.10;;;5.70;99.90;;;;;;5091074;28;20397;-83
2022/04/27 07:35:30;;;;;;;8.43;4.60;;;5.70;99.90;;;;;;5092557;28;20481;-83
2022/04/27 07:37:55;;;;;;;14.25;4.82;;;5.90;99.90;;;;;;5092331;28;20157;-83
2022/04/27 07:40:21;;;;;;;9.57;3.63;;;5.90;99.90;;;;;;5090923;28;20032;-84
2022/04/27 07:42:48;;;;;;;13.18;5.43;;;6.00;99.90;;;;;;5090717;28;20020;-83
2022/04/27 07:45:14;;;;;;;11.15;2.55;;;6.10;99.90;;;;;;5090824;28;20336;-83
2022/04/27 07:47:46;;;;;;;12.73;2.10;;;6.30;99.90;;;;;;5090887;28;20024;-83
2022/04/27 07:50:16;;;;;;;9.27;2.70;;;6.40;99.90;;;;;;5090765;28;20083;-83
2022/04/27 07:52:43;;;;;;;9.65;2.35;;;6.50;99.90;;;;;;5092236;28;20027;-83
2022/04/27 07:55:10;;;;;;;11.98;3.10;;;6.60;99.90;;;;;;5090639;28;20063;-83
2022/04/27 07:57:36;;;;;;;11.40;3.15;;;6.80;99.90;;;;;;5090557;28;20447;-83
2022/04/27 08:00:08;;;;;;;12.55;4.10;;;6.80;99.90;;;;;;5091938;28;20097;-84
2022/04/27 08:02:35;;;;;;;8.80;3.55;;;6.90;99.90;;;;;;5092103;28;20020;-83
2022/04/27 08:05:01;;;;;;;12.30;4.40;;;7.00;99.90;;;;;;5091549;28;20035;-83
2022/04/27 08:07:40;;;;;;;14.05;4.20;;;7.10;99.90;;;;;;5092239;28;20024;-83
2022/04/27 08:10:15;;;;;;;6.03;3.00;;;7.20;99.90;;;;;;5090855;28;20060;-83
2022/04/27 08:12:43;;;;;;;7.25;3.72;;;7.30;99.90;;;;;;5090494;28;20481;-83
2022/04/27 08:15:09;;;;;;;7.82;2.88;;;7.30;99.90;;;;;;5090654;28;20413;-83
2022/04/27 08:17:35;;;;;;;19.15;4.32;;;7.30;99.90;;;;;;5092006;28;20414;-84
2022/04/27 08:22:46;;;;;;;7.22;3.13;;;7.40;99.90;;;;;;5092554;28;20050;-83
2022/04/27 08:25:12;;;;;;;7.75;3.22;;;7.50;99.90;;;;;;5090973;28;20119;-83
2022/04/27 08:27:38;;;;;;;13.05;3.20;;;7.50;99.90;;;;;;5091321;28;20024;-83
2022/04/27 08:30:05;;;;;;;9.50;3.20;;;7.50;99.90;;;;;;5090812;28;20072;-84
2022/04/27 08:32:31;;;;;;;7.13;2.50;;;7.50;99.90;;;;;;5091659;28;20107;-84
2022/04/27 08:34:57;;;;;;;8.13;3.03;;;7.60;99.90;;;;;;5091995;28;20138;-83
2022/04/27 08:37:22;;;;;;;9.18;2.92;;;7.60;99.90;;;;;;5090466;28;20031;-84
2022/04/27 08:39:49;;;;;;;7.90;3.63;;;7.60;99.70;;;;;;5090392;28;20338;-83
2022/04/27 08:42:14;;;;;;;8.25;2.30;;;7.60;99.40;;;;;;5090273;28;20020;-82
2022/04/27 08:44:40;;;;;;;9.40;2.90;;;7.60;99.30;;;;;;5090456;28;20480;-83
2022/04/27 08:47:08;;;;;;;8.55;2.70;;;7.70;98.70;;;;;;5091706;28;20024;-83
2022/04/27 08:49:34;;;;;;;7.72;2.30;;;7.70;98.20;;;;;;5091585;28;20122;-83
2022/04/27 08:52:06;;;;;;;9.57;2.97;;;7.70;98.00;;;;;;5091896;28;20123;-83
2022/04/27 08:54:33;;;;;;;13.93;3.10;;;7.70;97.70;;;;;;5090910;28;20039;-83
2022/04/27 08:56:59;;;;;;;11.32;3.05;;;7.60;97.40;;;;;;5090816;28;20105;-84
2022/04/27 08:59:25;;;;;;;11.85;2.90;;;7.70;97.50;;;;;;5100367;28;20017;-83
2022/04/27 09:01:56;;;;;;;14.88;4.38;;;7.70;97.40;;;;;;5102997;28;20024;-85
2022/04/27 09:04:22;;;;;;;11.38;3.40;;;7.80;97.20;;;;;;5102052;28;20104;-83
2022/04/27 09:06:49;;;;;;;16.85;3.60;;;7.80;96.80;;;;;;5100639;28;20077;-84
2022/04/27 09:09:33;;;;;;;14.73;2.60;;;7.70;96.60;;;;;;5096832;28;20021;-83
2022/04/27 09:11:58;;;;;;;10.00;2.40;;;7.80;96.60;;;;;;5096231;28;20318;-83
2022/04/27 09:14:37;;;;;;;13.48;2.85;;;7.80;97.00;;;;;;5094881;28;20024;-82
2022/04/27 09:22:44;;;;;;;9.38;2.78;;;8.00;96.10;;;;;;5095789;28;20197;-83
2022/04/27 09:25:10;;;;;;;12.73;2.28;;;8.00;95.60;;;;;;5095457;28;20027;-83
2022/04/27 09:27:35;;;;;;;10.88;2.63;;;8.00;95.20;;;;;;5096056;28;20016;-84
2022/04/27 09:30:06;;;;;;;9.23;2.10;;;8.00;94.80;;;;;;5095093;28;20020;-84
2022/04/27 09:32:33;;;;;;;;;;;8.00;94.50;;;;;;5093701;28;20020;-84
2022/04/27 09:35:00;;;;;;;7.22;2.00;;;8.10;94.30;;;;;;5093351;28;19908;-85
2022/04/27 09:37:27;;;;;;;15.93;2.30;;;8.10;94.20;;;;;;5092140;28;20408;-86
2022/04/27 09:40:13;;;;;;;9.32;2.53;;;8.20;93.90;;;;;;5092421;28;20050;-84
2022/04/27 09:42:43;;;;;;;10.10;2.42;;;8.30;93.50;;;;;;5083633;28;20107;-84
2022/04/27 09:45:17;;;;;;;9.30;2.08;;;8.40;93.40;;;;;;5095051;28;20026;-84
2022/04/27 09:47:57;;;;;;;12.75;2.33;;;8.50;93.00;;;;;;5093859;28;20171;-83
2022/04/27 09:50:23;;;;;;;12.70;2.22;;;8.60;92.70;;;;;;5093155;28;20580;-84
2022/04/27 09:52:50;;;;;;;6.63;2.13;;;8.70;92.60;;;;;;5093188;28;20028;-84
2022/04/27 09:55:15;;;;;;;11.57;2.75;;;8.80;92.30;;;;;;5092276;28;20024;-85
2022/04/27 09:57:42;;;;;;;12.27;3.00;;;8.80;91.90;;;;;;5093925;28;20024;-85
2022/04/27 10:00:12;;;;;;;13.10;2.20;;;8.90;91.40;;;;;;5092709;28;20035;-85
2022/04/27 10:02:43;;;;;;;5.40;2.10;;;9.00;90.90;;;;;;5092550;28;20032;-84
2022/04/27 10:05:09;;;;;;;9.35;1.95;;;9.00;90.60;;;;;;5094000;28;20541;-85
2022/04/27 10:07:35;;;;;;;10.40;2.15;;;9.00;90.30;;;;;;5093378;28;20020;-85
2022/04/27 10:10:04;;;;;;;11.68;2.72;;;9.00;89.90;;;;;;5103805;28;20127;-84
2022/04/27 10:12:35;;;;;;;10.20;2.38;;;9.00;89.60;;;;;;5107178;28;20050;-84
2022/04/27 10:15:01;;;;;;;13.75;2.42;;;9.10;88.70;;;;;;5112855;28;20020;-84
2022/04/27 10:17:28;;;;;;;10.80;2.42;;;9.10;88.90;;;;;;5095683;28;20534;-84
2022/04/27 10:19:54;;;;;;;12.48;2.40;;;9.20;88.80;;;;;;5112058;28;20106;-84
2022/04/27 10:22:32;;;;;;;7.07;2.60;;;9.20;88.40;;;;;;5112689;28;20066;-84
2022/04/27 10:25:06;;;;;;;17.98;3.00;;;9.30;88.10;;;;;;5100147;28;20028;-85
2022/04/27 10:27:42;;;;;;;7.95;2.78;;;9.30;87.70;;;;;;5134504;27;20028;-86
2022/04/27 10:30:10;;;;;;;10.63;2.88;;;9.40;87.50;;;;;;5114091;28;20023;-85
2022/04/27 10:32:43;;;;;;;8.32;2.67;;;9.40;86.80;;;;;;5112472;28;20019;-85
2022/04/27 10:35:11;;;;;;;18.23;3.42;;;9.50;86.80;;;;;;5112371;28;20581;-85
2022/04/27 10:37:47;;;;;;;8.27;2.50;;;9.50;86.30;;;;;;5113644;28;20020;-86
2022/04/27 10:40:33;;;;;;;14.27;3.65;;;9.50;86.20;;;;;;5133517;27;20390;-85
2022/04/27 10:43:26;;;;;;;17.00;2.50;;;9.70;86.10;;;;;;5109076;28;20468;-85
2022/04/27 10:45:52;;;;;;;19.75;5.05;;;9.70;85.50;;;;;;5106003;28;20055;-85
2022/04/27 10:48:44;;;;;;;10.10;3.22;;;9.70;85.20;;;;;;5111370;28;20077;-85
2022/04/27 10:51:10;;;;;;;11.30;3.10;;;9.70;85.00;;;;;;5113618;28;20361;-84
2022/04/27 10:53:43;;;;;;;22.27;4.65;;;9.80;84.70;;;;;;5100174;28;20036;-85
2022/04/27 10:56:24;;;;;;;10.30;3.15;;;9.80;84.40;;;;;;5091375;28;20032;-84
2022/04/27 10:58:50;;;;;;;13.23;3.13;;;9.80;84.20;;;;;;5092925;28;20416;-86
2022/04/27 11:01:28;;;;;;;9.75;2.90;;;9.90;84.00;;;;;;5125608;27;20047;-85
2022/04/27 11:04:12;;;;;;;8.95;3.17;;;9.90;83.60;;;;;;5102701;28;20020;-84
2022/04/27 11:07:22;;;;;;;10.23;2.80;;;10.00;83.40;;;;;;5108019;28;20026;-85
2022/04/27 11:10:11;;;;;;;15.30;3.37;;;10.00;83.50;;;;;;5110958;28;20038;-85
2022/04/27 11:12:39;;;;;;;11.85;2.90;;;10.00;82.60;;;;;;5102416;28;20027;-85
2022/04/27 11:15:10;;;;;;;10.43;3.58;;;10.00;82.20;;;;;;5110444;28;20023;-85
2022/04/27 11:17:37;;;;;;;13.30;3.90;;;10.00;82.70;;;;;;5112039;28;20022;-85
2022/04/27 11:20:04;;;;;;;14.15;3.88;;;10.10;82.30;;;;;;5109927;28;20510;-85
2022/04/27 11:22:38;;;;;;;14.27;3.38;;;10.10;82.40;;;;;;5111704;28;20108;-85
2022/04/27 11:25:07;;;;;;;11.77;4.35;;;10.20;82.20;;;;;;5110373;28;20030;-84
2022/04/27 11:27:34;;;;;;;12.82;3.80;;;10.30;82.10;;;;;;5111700;28;20023;-85
2022/04/27 11:30:02;;;;;;;15.10;4.18;;;10.30;82.30;;;;;;5110585;28;20023;-84
2022/04/27 11:32:30;;;;;;;14.10;4.10;;;10.30;81.30;;;;;;5111929;28;20095;-83
2022/04/27 11:34:56;;;;;;;16.85;3.80;;;10.30;81.40;;;;;;5111760;28;20059;-84
2022/04/27 11:37:22;;;;;;;9.18;3.00;;;10.30;81.40;;;;;;5111676;28;20109;-84
2022/04/27 11:39:49;;;;;;;8.30;3.88;;;10.40;81.40;;;;;;5106319;28;20058;-84
2022/04/27 11:42:17;;;;;;;13.48;3.85;;;10.40;81.00;;;;;;5110338;28;20109;-84
2022/04/27 11:44:51;;;;;;;12.15;3.47;;;10.30;80.50;;;;;;5111528;28;20063;-84
2022/04/27 11:47:26;;;;;;;10.32;3.00;;;10.30;80.60;;;;;;5111966;28;20376;-84
2022/04/27 11:49:59;;;;;;;8.07;3.42;;;10.40;81.30;;;;;;5106689;28;20092;-85
2022/04/27 11:52:26;;;;;;;10.18;3.75;;;10.40;80.20;;;;;;5110338;28;20034;-84
2022/04/27 11:54:52;;;;;;;10.32;3.10;;;10.40;80.10;;;;;;5111719;28;20488;-84
2022/04/27 11:57:24;;;;;;;15.70;3.80;;;10.50;80.10;;;;;;5112391;28;20024;-84
2022/04/27 11:59:51;;;;;;;11.63;4.00;;;10.50;79.40;;;;;;5105716;28;20036;-84
2022/04/27 12:02:23;;;;;;;11.40;3.13;;;10.40;79.10;;;;;;5111173;28;20194;-85
2022/04/27 12:04:51;;;;;;;7.90;3.30;;;10.50;79.40;;;;;;5098898;28;20107;-84
2022/04/27 12:07:18;;;;;;;13.15;3.50;;;10.60;79.60;;;;;;5092327;28;20089;-83
2022/04/27 12:10:00;;;;;;;13.65;3.47;;;10.70;79.20;;;;;;5098748;28;20020;-84
2022/04/27 12:12:28;;;;;;;11.98;3.92;;;10.70;78.70;;;;;;5100254;28;20481;-87
2022/04/27 12:14:56;;;;;;;22.00;5.47;;;10.70;77.90;;;;;;5088265;28;20052;-84
2022/04/27 12:17:42;;;;;;;17.95;4.40;;;10.80;78.20;;;;;;5081092;28;20044;-84
2022/04/27 12:20:23;;;;;;;7.70;4.03;;;10.80;77.70;;;;;;5083416;28;20024;-85
2022/04/27 12:22:57;;;;;;;13.40;3.08;;;10.90;77.30;;;;;;5100266;28;20096;-86
2022/04/27 12:25:44;;;;;;;14.65;4.10;;;11.00;76.80;;;;;;5101236;28;20099;-85
2022/04/27 12:28:19;;;;;;;13.93;3.83;;;10.90;76.20;;;;;;5091528;28;20028;-85
2022/04/27 12:30:48;;;;;;;13.93;3.83;;;10.90;76.00;;;;;;5096884;28;20181;-83
2022/04/27 12:33:34;;;;;;;11.25;3.70;;;10.90;76.30;;;;;;5095805;28;20490;-84
2022/04/27 12:39:02;;;;;;;11.85;3.42;;;11.20;75.90;;;;;;5094466;28;20034;-85
2022/04/27 12:41:32;;;;;;;14.23;3.50;;;11.50;75.60;;;;;;5096794;28;20060;-84
2022/04/27 12:44:06;;;;;;;9.33;3.20;;;11.70;75.80;;;;;;5083066;28;20039;-84
2022/04/27 12:46:32;;;;;;;9.80;3.60;;;11.80;74.50;;;;;;5098198;28;20793;-85
2022/04/27 12:49:03;;;;;;;10.75;3.95;;;11.90;74.70;;;;;;5095500;28;20032;-86
2022/04/27 12:51:29;;;;;;;9.48;3.70;;;12.00;74.10;;;;;;5093344;28;20113;-83
2022/04/27 12:53:57;;;;;;;16.08;3.65;;;12.00;73.40;;;;;;5095095;28;20035;-85
2022/04/27 12:56:31;;;;;;;7.85;2.85;;;12.10;73.40;;;;;;5095548;28;20016;-86
2022/04/27 12:59:11;;;;;;;5.80;2.97;;;12.20;73.30;;;;;;5096553;28;20376;-87
2022/04/27 13:01:38;;;;;;;7.25;2.92;;;12.30;73.30;;;;;;5095668;28;20054;-86
2022/04/27 13:04:03;;;;;;;13.38;3.75;;;12.40;72.80;;;;;;5095055;28;20021;-87
2022/04/27 13:06:30;;;;;;;13.77;3.63;;;12.40;72.30;;;;;;5095414;28;20035;-85
2022/04/27 13:11:57;;;;;;;11.18;3.33;;;12.40;71.70;;;;;;5097634;28;20568;-88
2022/04/27 13:14:26;;;;;;;11.77;3.65;;;12.30;71.40;;;;;;5096416;28;20024;-87
2022/04/27 13:16:56;;;;;;;10.67;3.53;;;12.20;71.50;;;;;;5095583;28;20107;-86
2022/04/27 13:19:23;;;;;;;11.00;3.50;;;12.20;71.70;;;;;;5078079;28;20051;-87
2022/04/27 13:21:51;;;;;;;16.52;3.22;;;12.50;71.90;;;;;;5088683;28;20528;-87